Time;durP1;ratioP1;P1;durP2;ratioP2;P2;SDS_P1;SDS_P2;PMS_P1;PMS_P2;Temp;Humidity;BMP_temperature;BMP_pressure;BME280_temperature;BME280_humidity;BME280_pressure;Samples;Min_cycle;Max_cycle;Signal;HPM_P1;HPM_P2
2024/01/21 00:02:21;;;;;;;6.73;4.10;;;;;;;0.83;100.00;62996.03;5031958;28;20272;-54
2024/01/21 00:04:48;;;;;;;5.27;3.87;;;;;;;0.85;100.00;63000.69;5032005;28;20190;-54
2024/01/21 00:07:14;;;;;;;4.50;3.40;;;;;;;0.90;100.00;63005.56;5032161;28;20217;-55
2024/01/21 00:09:39;;;;;;;5.00;2.90;;;;;;;0.76;100.00;62991.50;5031869;28;20577;-53
2024/01/21 00:12:05;;;;;;;6.90;3.50;;;;;;;0.70;100.00;62987.47;5014149;28;20206;-54
2024/01/21 00:14:31;;;;;;;5.30;3.43;;;;;;;0.82;100.00;62999.94;5031865;28;20194;-54
2024/01/21 00:16:57;;;;;;;6.23;3.23;;;;;;;0.88;100.00;63006.44;5024806;22;20218;-53
2024/01/21 00:19:22;;;;;;;4.23;3.13;;;;;;;0.99;100.00;63015.34;5071852;28;20204;-53
2024/01/21 00:21:48;;;;;;;6.77;3.47;;;;;;;0.97;100.00;63016.16;5071719;28;20182;-53
2024/01/21 00:24:13;;;;;;;5.37;3.60;;;;;;;1.04;100.00;63023.22;5071728;28;20674;-55
2024/01/21 00:26:39;;;;;;;4.30;2.50;;;;;;;0.93;100.00;63011.31;5053561;28;20181;-54
2024/01/21 00:29:05;;;;;;;4.70;3.10;;;;;;;1.05;100.00;63022.34;5071954;28;20285;-54
2024/01/21 00:31:30;;;;;;;4.83;2.93;;;;;;;0.92;100.00;63010.22;5070402;28;20189;-53
2024/01/21 00:34:03;;;;;;;3.47;2.37;;;;;;;0.93;100.00;63009.34;5071921;28;20705;-54
2024/01/21 00:36:28;;;;;;;4.20;2.67;;;;;;;0.31;100.00;62942.22;5071501;28;20221;-54
2024/01/21 00:38:54;;;;;;;5.87;2.83;;;;;;;0.49;100.00;62961.69;5053737;28;20196;-53
2024/01/21 00:41:20;;;;;;;4.27;2.50;;;;;;;0.52;100.00;62967.44;5071535;28;20224;-53
2024/01/21 00:43:46;;;;;;;3.23;2.30;;;;;;;0.79;100.00;62994.19;5071387;28;20205;-54
2024/01/21 00:46:11;;;;;;;4.43;2.57;;;;;;;0.55;100.00;62968.19;5071424;28;20216;-53
2024/01/21 00:48:37;;;;;;;3.00;2.00;;;;;;;0.62;100.00;62980.75;5071631;28;20234;-54
2024/01/21 00:51:02;;;;;;;7.80;4.43;;;;;;;0.70;100.00;62984.44;5071241;28;20189;-54
2024/01/21 00:53:28;;;;;;;3.27;2.57;;;;;;;0.72;100.00;62989.09;5053365;28;20228;-55
2024/01/21 00:55:53;;;;;;;8.10;2.53;;;;;;;0.71;100.00;62986.06;5071248;28;20196;-54
2024/01/21 00:58:19;;;;;;;3.47;2.67;;;;;;;0.74;100.00;62991.25;5071412;28;20571;-54
2024/01/21 01:00:44;;;;;;;3.70;2.63;;;;;;;0.71;100.00;62988.53;5071794;28;20256;-55
2024/01/21 01:03:10;;;;;;;5.00;3.00;;;;;;;0.82;100.00;62999.94;5071238;28;20317;-54
2024/01/21 01:05:36;;;;;;;4.10;2.47;;;;;;;0.85;100.00;63000.69;5071234;28;20192;-54
2024/01/21 01:08:01;;;;;;;5.67;2.50;;;;;;;0.98;100.00;63014.25;5071302;28;20204;-54
2024/01/21 01:10:27;;;;;;;3.47;2.30;;;;;;;0.89;100.00;63007.50;5071102;28;20192;-52
2024/01/21 01:12:52;;;;;;;4.13;2.50;;;;;;;1.02;100.00;63023.53;5053603;28;20209;-54
2024/01/21 01:15:18;;;;;;;2.17;1.10;;;;;;;0.99;100.00;63015.34;5071800;28;20265;-59
2024/01/21 01:17:44;;;;;;;1.93;1.70;;;;;;;1.05;100.00;63024.31;5070962;28;20218;-54
2024/01/21 01:20:10;;;;;;;2.03;1.70;;;;;;;1.04;100.00;63023.75;5070904;28;20196;-55
2024/01/21 01:22:36;;;;;;;1.90;1.53;;;;;;;0.91;100.00;63009.66;5052822;28;20634;-55
2024/01/21 01:25:02;;;;;;;2.77;1.77;;;;;;;0.92;100.00;63010.75;5070734;28;20188;-55
2024/01/21 01:27:27;;;;;;;3.43;1.63;;;;;;;0.91;100.00;63007.19;5070534;28;20287;-56
2024/01/21 01:29:53;;;;;;;2.40;1.80;;;;;;;0.90;100.00;63010.53;5070903;28;20197;-54
2024/01/21 01:32:19;;;;;;;3.47;1.50;;;;;;;0.88;100.00;63006.44;5070675;28;20209;-55
2024/01/21 01:34:44;;;;;;;2.40;1.83;;;;;;;0.99;100.00;63015.34;5070798;28;20205;-55
2024/01/21 01:37:11;;;;;;;2.40;1.93;;;;;;;0.96;100.00;63015.09;5052499;28;20302;-55
2024/01/21 01:39:37;;;;;;;2.50;1.60;;;;;;;0.94;100.00;63012.94;5052750;28;20759;-54
2024/01/21 01:42:03;;;;;;;2.50;1.67;;;;;;;0.91;100.00;63007.19;5071155;28;20201;-55
2024/01/21 01:44:29;;;;;;;2.07;1.67;;;;;;;0.81;100.00;62998.84;5074184;28;20197;-55
2024/01/21 01:46:54;;;;;;;2.23;2.00;;;;;;;0.92;100.00;63010.22;5056435;28;20261;-54
2024/01/21 01:49:21;;;;;;;2.70;1.70;;;;;;;0.85;100.00;63003.16;5074213;28;20184;-56
2024/01/21 01:51:46;;;;;;;2.07;1.83;;;;;;;0.80;100.00;62998.31;5073976;28;20181;-54
2024/01/21 01:54:12;;;;;;;2.60;2.40;;;;;;;0.79;100.00;62994.19;5056553;28;20679;-59
2024/01/21 01:56:39;;;;;;;2.40;2.00;;;;;;;0.79;100.00;62994.75;5073976;28;20600;-55
2024/01/21 01:59:09;;;;;;;2.13;1.80;;;;;;;0.84;100.00;62999.63;5056475;28;20262;-55
2024/01/21 02:01:37;;;;;;;2.27;2.07;;;;;;;0.85;100.00;63001.22;5073854;28;20214;-53
2024/01/21 02:04:04;;;;;;;3.30;2.17;;;;;;;0.89;100.00;63005.03;5074082;28;20201;-55
2024/01/21 02:06:30;;;;;;;4.30;2.67;;;;;;;0.90;100.00;63008.59;5073883;28;20196;-53
2024/01/21 02:08:57;;;;;;;2.80;2.23;;;;;;;1.02;100.00;63016.63;5073929;28;20228;-54
2024/01/21 02:11:22;;;;;;;2.57;2.00;;;;;;;1.03;100.00;63019.66;5073940;28;20197;-53
2024/01/21 02:13:49;;;;;;;4.53;1.80;;;;;;;1.00;100.00;63016.94;5073513;28;20213;-53
2024/01/21 02:16:15;;;;;;;2.17;1.97;;;;;;;0.93;100.00;63014.31;5071658;28;20244;-54
2024/01/21 02:18:45;;;;;;;3.83;2.57;;;;;;;0.90;100.00;63003.63;5073336;28;20218;-53
2024/01/21 02:21:10;;;;;;;3.10;2.00;;;;;;;0.78;100.00;62995.59;5073629;28;20254;-54
2024/01/21 02:23:36;;;;;;;2.77;1.97;;;;;;;0.80;100.00;62995.84;5074073;28;20212;-54
2024/01/21 02:26:01;;;;;;;1.97;1.30;;;;;;;0.74;100.00;62988.78;5073512;28;20731;-56
2024/01/21 02:28:27;;;;;;;2.37;1.70;;;;;;;0.88;100.00;63005.88;5073321;28;20245;-53
2024/01/21 02:30:52;;;;;;;2.97;1.70;;;;;;;0.77;100.00;62992.56;5073747;28;20607;-52
2024/01/21 02:33:36;;;;;;;2.40;2.07;;;;;;;0.66;100.00;62983.16;5073634;28;20208;-53
2024/01/21 02:36:02;;;;;;;3.70;1.80;;;;;;;0.59;100.00;62975.56;5073595;28;20196;-53
2024/01/21 02:38:28;;;;;;;2.10;1.60;;;;;;;0.60;100.00;62973.63;5073408;28;20204;-54
2024/01/21 02:40:53;;;;;;;3.40;2.33;;;;;;;0.63;100.00;62979.34;5073530;28;20557;-55
2024/01/21 02:43:19;;;;;;;3.10;1.93;;;;;;;0.66;100.00;62983.16;5073717;28;20563;-55
2024/01/21 02:45:44;;;;;;;2.13;1.70;;;;;;;0.68;100.00;62985.31;5055377;28;20246;-54
2024/01/21 02:48:10;;;;;;;4.57;2.07;;;;;;;0.67;100.00;62983.66;5073485;28;20204;-54
2024/01/21 02:50:35;;;;;;;2.93;1.90;;;;;;;0.71;100.00;62983.59;5073294;28;20197;-55
2024/01/21 02:53:01;;;;;;;1.97;1.60;;;;;;;0.50;100.00;62967.75;5073208;28;20295;-53
2024/01/21 02:55:27;;;;;;;1.50;1.30;;;;;;;0.43;100.00;62955.19;5073209;28;20220;-53
2024/01/21 02:57:52;;;;;;;25.30;13.93;;;;;;;0.26;100.00;62937.34;5073054;28;20248;-54
2024/01/21 03:00:19;;;;;;;4.47;3.00;;;;;;;0.26;100.00;62939.28;5073180;28;20185;-54
2024/01/21 03:02:44;;;;;;;3.07;1.70;;;;;;;0.32;100.00;62946.31;5055326;28;20216;-53
2024/01/21 03:05:10;;;;;;;4.10;2.33;;;;;;;0.27;100.00;62940.34;5055314;28;20246;-53
2024/01/21 03:07:35;;;;;;;6.07;2.23;;;;;;;0.20;100.00;62932.78;5055246;28;20204;-54
2024/01/21 03:10:01;;;;;;;3.50;2.70;;;;;;;0.18;100.00;62928.16;5073009;28;20188;-52
2024/01/21 03:12:26;;;;;;;5.33;2.87;;;;;;;0.30;100.00;62944.16;5073019;28;20212;-52
2024/01/21 03:14:52;;;;;;;6.23;3.03;;;;;;;0.29;100.00;62943.06;5054891;28;20279;-53
2024/01/21 03:17:18;;;;;;;5.57;3.20;;;;;;;0.27;100.00;62940.34;5072779;28;20209;-52
2024/01/21 03:19:44;;;;;;;7.53;4.50;;;;;;;0.23;100.00;62936.03;5072848;28;20196;-53
2024/01/21 03:22:09;;;;;;;7.57;4.33;;;;;;;0.22;100.00;62935.50;5072662;28;20220;-55
2024/01/21 03:24:36;;;;;;;11.33;5.83;;;;;;;0.23;100.00;62936.03;5072771;28;20338;-53
2024/01/21 03:27:01;;;;;;;9.37;5.33;;;;;;;0.23;100.00;62934.09;5072591;28;20697;-53
2024/01/21 03:29:27;;;;;;;12.47;5.43;;;;;;;0.24;100.00;62935.19;5072649;28;20201;-53
2024/01/21 03:31:52;;;;;;;9.90;5.80;;;;;;;0.20;100.00;62933.34;5072565;28;20358;-54
2024/01/21 03:34:18;;;;;;;14.10;5.57;;;;;;;0.09;100.00;62921.41;5072586;28;20242;-54
2024/01/21 03:36:43;;;;;;;12.23;6.47;;;;;;;0.02;100.00;62915.78;5072645;28;20282;-54
2024/01/21 03:39:10;;;;;;;15.00;7.10;;;;;;;-0.04;100.00;62902.94;5072556;28;20192;-55
2024/01/21 03:41:35;;;;;;;10.67;6.10;;;;;;;-0.02;100.00;62910.03;5054488;28;20192;-54
2024/01/21 03:44:00;;;;;;;8.47;5.93;;;;;;;0.00;100.00;62912.22;5072506;28;20250;-54
2024/01/21 03:46:26;;;;;;;11.53;6.40;;;;;;;-0.05;100.00;62903.78;5072273;28;20228;-57
2024/01/21 03:48:51;;;;;;;12.57;7.00;;;;;;;-0.27;100.00;62880.53;5072781;28;20205;-54
2024/01/21 03:51:17;;;;;;;12.17;6.03;;;;;;;-0.33;100.00;62876.50;5072461;28;20246;-55
2024/01/21 03:53:43;;;;;;;13.13;7.17;;;;;;;-0.15;100.00;62895.44;5072225;28;20215;-53
2024/01/21 03:56:16;;;;;;;11.30;7.30;;;;;;;-0.19;100.00;62889.19;5072376;28;20228;-54
2024/01/21 03:58:41;;;;;;;13.50;7.40;;;;;;;-0.21;100.00;62889.50;5072432;28;20209;-54
2024/01/21 04:01:07;;;;;;;10.37;6.60;;;;;;;-0.47;100.00;62863.84;5072210;28;20212;-54
2024/01/21 04:03:33;;;;;;;14.53;7.83;;;;;;;-0.98;100.00;62806.75;5072121;28;20204;-54
2024/01/21 04:05:58;;;;;;;12.53;7.90;;;;;;;-1.16;100.00;62784.25;5071454;28;20608;-54
2024/01/21 04:08:24;;;;;;;10.30;6.67;;;;;;;-1.12;100.00;62791.59;5072004;28;20208;-52
2024/01/21 04:10:50;;;;;;;11.30;7.10;;;;;;;-0.94;100.00;62811.06;5072258;28;20232;-54
2024/01/21 04:13:17;;;;;;;9.10;6.43;;;;;;;-1.19;100.00;62783.50;5072126;28;20220;-53
2024/01/21 04:15:42;;;;;;;9.63;5.90;;;;;;;-1.33;100.00;62768.91;5053844;28;20228;-53
2024/01/21 04:18:08;;;;;;;9.90;5.97;;;;;;;-1.47;100.00;62750.75;5053980;28;20236;-53
2024/01/21 04:20:34;;;;;;;8.03;5.07;;;;;;;-1.45;100.00;62753.47;5071761;28;20193;-59
2024/01/21 04:22:59;;;;;;;10.93;6.17;;;;;;;-1.11;100.00;62789.69;5071740;28;20213;-54
2024/01/21 04:25:25;;;;;;;10.00;5.30;;;;;;;-0.99;100.00;62803.19;5072040;28;20196;-53
2024/01/21 04:27:50;;;;;;;6.60;4.63;;;;;;;-1.08;100.00;62795.94;5053693;28;20208;-54
2024/01/21 04:30:16;;;;;;;6.77;3.30;;;;;;;-1.43;100.00;62755.06;5072037;28;20559;-54
2024/01/21 04:32:41;;;;;;;6.10;3.47;;;;;;;-1.71;100.00;62725.91;5071931;28;20200;-54
2024/01/21 04:35:07;;;;;;;5.43;3.47;;;;;;;-1.88;100.00;62709.47;5071738;28;20270;-54
2024/01/21 04:37:33;;;;;;;7.47;3.40;;;;;;;-1.90;100.00;62707.84;5071716;28;20688;-53
2024/01/21 04:39:58;;;;;;;5.37;3.30;;;;;;;-1.92;100.00;62705.16;5053632;28;20189;-53
2024/01/21 04:42:25;;;;;;;6.23;3.03;;;;;;;-2.08;100.00;62687.88;5053576;28;20292;-53
2024/01/21 04:44:51;;;;;;;4.40;2.93;;;;;;;-2.37;100.00;62657.09;5071536;28;20295;-53
2024/01/21 04:47:17;;;;;;;3.27;2.27;;;;;;;-2.35;100.00;62654.34;5071492;28;20291;-53
2024/01/21 04:49:42;;;;;;;6.37;2.70;;;;;;;-2.54;100.00;62638.75;5053407;28;20197;-54
2024/01/21 04:52:08;;;;;;;5.97;2.00;;;;;;;-2.67;100.00;62624.72;5071285;28;20261;-52
2024/01/21 04:54:33;;;;;;;8.23;2.37;;;;;;;-2.64;100.00;62630.41;5071611;28;20197;-53
2024/01/21 04:56:59;;;;;;;2.90;2.20;;;;;;;-2.73;100.00;62620.72;5071227;28;20728;-53
2024/01/21 04:59:25;;;;;;;3.80;2.13;;;;;;;-2.48;100.00;62645.22;5071358;28;20218;-52
2024/01/21 05:01:51;;;;;;;2.90;1.57;;;;;;;-2.53;100.00;62639.28;5071109;28;20274;-54
2024/01/21 05:04:17;;;;;;;5.10;2.50;;;;;;;-2.59;100.00;62636.34;5053127;28;20204;-52
2024/01/21 05:06:43;;;;;;;3.60;1.80;;;;;;;-2.58;100.00;62634.44;5070888;28;20195;-53
2024/01/21 05:09:10;;;;;;;2.03;1.60;;;;;;;-2.60;100.00;62629.81;5071278;28;20232;-54
2024/01/21 05:11:37;;;;;;;3.33;1.83;;;;;;;-2.52;100.00;62640.91;5053424;28;20185;-54
2024/01/21 05:14:02;;;;;;;2.40;1.67;;;;;;;-2.81;100.00;62612.09;5070832;28;20200;-54
2024/01/21 05:16:28;;;;;;;2.37;2.00;;;;;;;-2.71;100.00;62622.88;5069672;28;20225;-55
2024/01/21 05:18:53;;;;;;;3.57;1.70;;;;;;;-2.81;100.00;62612.59;5070620;28;20197;-54
2024/01/21 05:21:20;;;;;;;2.23;1.40;;;;;;;-3.19;100.00;62569.16;5070937;28;20242;-53
2024/01/21 05:23:47;;;;;;;3.60;1.70;;;;;;;-3.14;100.00;62577.03;5071190;28;20204;-52
2024/01/21 05:26:13;;;;;;;2.23;1.70;;;;;;;-3.36;100.00;62548.38;5070981;28;20203;-54
2024/01/21 05:28:39;;;;;;;2.43;1.70;;;;;;;-3.14;100.00;62574.56;5070907;28;20216;-52
2024/01/21 05:31:05;;;;;;;3.57;1.90;;;;;;;-3.28;100.00;62556.44;5053360;28;20204;-53
2024/01/21 05:33:30;;;;;;;3.17;1.87;;;;;;;-3.40;100.00;62546.53;5070950;28;20214;-54
2024/01/21 05:35:56;;;;;;;2.73;1.80;;;;;;;-3.34;100.00;62553.00;5071122;28;20189;-52
2024/01/21 05:38:21;;;;;;;2.47;2.00;;;;;;;-3.38;100.00;62548.13;5070729;28;20310;-52
2024/01/21 05:40:47;;;;;;;4.77;2.17;;;;;;;-3.24;100.00;62563.78;5070844;28;20691;-54
2024/01/21 05:43:12;;;;;;;2.50;1.43;;;;;;;-3.34;100.00;62553.00;5071166;28;20226;-54
2024/01/21 05:45:40;;;;;;;4.37;2.07;;;;;;;-3.44;100.00;62542.75;5070728;28;20678;-53
2024/01/21 05:48:07;;;;;;;3.30;1.77;;;;;;;-3.27;100.00;62557.53;5070636;28;20210;-54
2024/01/21 05:50:32;;;;;;;4.40;2.40;;;;;;;-3.17;100.00;62573.25;5052753;28;20231;-52
2024/01/21 05:52:57;;;;;;;2.73;2.03;;;;;;;-3.29;100.00;62558.38;5070745;28;20204;-54
2024/01/21 05:55:23;;;;;;;2.97;1.83;;;;;;;-3.19;100.00;62569.16;5052740;28;20293;-53
2024/01/21 05:57:49;;;;;;;3.27;1.97;;;;;;;-3.27;100.00;62557.53;5035525;28;20632;-54
2024/01/21 06:00:15;;;;;;;4.30;2.00;;;;;;;-3.33;100.00;62551.06;5070384;28;20215;-53
2024/01/21 06:02:42;;;;;;;5.57;2.37;;;;;;;-3.09;100.00;62577.47;5070643;28;20207;-52
2024/01/21 06:05:07;;;;;;;2.77;2.03;;;;;;;-3.13;100.00;62575.09;5070575;28;20258;-53
2024/01/21 06:07:33;;;;;;;4.97;2.40;;;;;;;-3.29;100.00;62560.31;5052481;28;20216;-54
2024/01/21 06:09:59;;;;;;;3.57;2.00;;;;;;;-3.26;100.00;62559.16;5070319;28;20697;-53
2024/01/21 06:12:24;;;;;;;4.87;2.10;;;;;;;-3.24;100.00;62560.75;5070466;28;20575;-52
2024/01/21 06:14:50;;;;;;;3.57;2.20;;;;;;;-3.26;100.00;62561.06;5052313;28;20671;-53
2024/01/21 06:17:16;;;;;;;4.90;2.80;;;;;;;-3.33;100.00;62554.06;5070099;28;20699;-54
2024/01/21 06:19:41;;;;;;;6.20;3.00;;;;;;;-3.41;100.00;62545.97;5052271;28;20225;-54
2024/01/21 06:22:07;;;;;;;5.50;2.63;;;;;;;-3.16;100.00;62574.31;5069959;28;20210;-55
2024/01/21 06:24:36;;;;;;;6.10;2.93;;;;;;;-3.18;100.00;62567.25;5070297;28;20271;-53
2024/01/21 06:27:03;;;;;;;4.63;2.57;;;;;;;-3.16;100.00;62571.84;5070147;28;20354;-53
2024/01/21 06:29:28;;;;;;;5.30;3.60;;;;;;;-3.31;100.00;62556.22;5072908;28;20268;-52
2024/01/21 06:31:55;;;;;;;4.43;2.73;;;;;;;-3.34;100.00;62550.53;5073493;28;20302;-54
2024/01/21 06:34:20;;;;;;;4.10;2.47;;;;;;;-3.11;100.00;62574.78;5055616;28;20191;-54
2024/01/21 06:36:46;;;;;;;4.73;3.00;;;;;;;-2.83;100.00;62608.00;5073317;28;20596;-54
2024/01/21 06:39:11;;;;;;;4.03;2.33;;;;;;;-3.05;100.00;62583.72;5073586;28;20224;-53
2024/01/21 06:41:38;;;;;;;5.13;2.50;;;;;;;-2.98;100.00;62591.28;5055202;28;20192;-53
2024/01/21 06:44:04;;;;;;;5.67;3.17;;;;;;;-3.06;100.00;62582.66;5073358;28;20207;-54
2024/01/21 06:46:29;;;;;;;6.20;3.50;;;;;;;-3.01;100.00;62588.03;5073202;28;20188;-54
2024/01/21 06:49:01;;;;;;;4.67;2.43;;;;;;;-3.14;100.00;62574.56;5073515;28;20533;-54
2024/01/21 06:51:47;;;;;;;4.10;2.97;;;;;;;-3.05;100.00;62586.19;5073371;28;20214;-53
2024/01/21 06:54:13;;;;;;;5.83;3.70;;;;;;;-2.94;100.00;62595.59;5073312;28;20243;-55
2024/01/21 06:56:39;;;;;;;6.17;3.97;;;;;;;-3.01;100.00;62588.03;5073044;28;20216;-56
2024/01/21 06:59:04;;;;;;;4.73;3.13;;;;;;;-2.82;100.00;62608.53;5073084;28;20249;-54
2024/01/21 07:01:30;;;;;;;8.23;3.77;;;;;;;-2.67;100.00;62622.25;5073104;28;20196;-54
2024/01/21 07:03:56;;;;;;;3.43;2.90;;;;;;;-2.47;100.00;62643.31;5073077;28;20192;-53
2024/01/21 07:06:21;;;;;;;4.63;2.87;;;;;;;-2.41;100.00;62655.25;5073007;28;20192;-54
2024/01/21 07:08:47;;;;;;;5.93;3.00;;;;;;;-2.33;100.00;62663.88;5072824;28;20217;-54
2024/01/21 07:11:13;;;;;;;4.03;3.43;;;;;;;-2.60;100.00;62632.28;5073014;28;20586;-54
2024/01/21 07:13:39;;;;;;;7.43;3.90;;;;;;;-2.39;100.00;62654.41;5072401;28;20208;-56
2024/01/21 07:16:04;;;;;;;3.10;2.80;;;;;;;-2.06;100.00;62687.56;5072736;28;20203;-54
2024/01/21 07:18:30;;;;;;;4.80;3.23;;;;;;;-2.36;100.00;62658.19;5072827;28;20211;-54
2024/01/21 07:20:56;;;;;;;6.53;3.63;;;;;;;-2.39;100.00;62654.94;5072825;28;20192;-56
2024/01/21 07:23:21;;;;;;;5.10;3.60;;;;;;;-2.38;100.00;62655.50;5072852;28;20304;-54
2024/01/21 07:25:47;;;;;;;4.33;3.40;;;;;;;-2.03;100.00;62696.28;5072560;28;20194;-53
2024/01/21 07:28:13;;;;;;;6.17;3.00;;;;;;;-2.25;100.00;62664.59;5072525;28;20208;-53
2024/01/21 07:30:39;;;;;;;6.20;3.40;;;;;;;-2.34;100.00;62659.81;5072586;28;20190;-53
2024/01/21 07:33:05;;;;;;;6.30;3.77;;;;;;;-1.89;100.00;62711.41;5072361;28;20211;-54
2024/01/21 07:35:31;;;;;;;5.53;2.93;;;;;;;-2.00;100.00;62697.03;5072568;28;20192;-53
2024/01/21 07:37:57;;;;;;;8.83;3.63;;;;;;;-1.79;100.00;62719.75;5072248;28;20217;-53
2024/01/21 07:40:22;;;;;;;5.57;3.63;;;;;;;-1.85;100.00;62713.25;5071275;28;20181;-56
2024/01/21 07:42:48;;;;;;;4.93;2.83;;;;;;;-1.80;100.00;62720.59;5072808;28;20214;-54
2024/01/21 07:45:13;;;;;;;9.47;3.60;;;;;;;-2.05;100.00;62691.66;5072572;28;20602;-54
2024/01/21 07:47:39;;;;;;;5.37;3.30;;;;;;;-1.84;100.00;62713.81;5071770;28;20674;-54
2024/01/21 07:50:05;;;;;;;6.60;3.50;;;;;;;-1.82;100.00;62718.44;5070542;28;20200;-54
2024/01/21 07:52:30;;;;;;;8.27;4.70;;;;;;;-1.68;100.00;62731.09;5071781;28;20207;-54
2024/01/21 07:54:56;;;;;;;19.67;5.40;;;;;;;-1.25;100.00;62780.00;5070925;28;20192;-54
2024/01/21 07:57:22;;;;;;;6.03;3.90;;;;;;;-1.37;100.00;62767.03;5072249;28;20297;-54
2024/01/21 07:59:47;;;;;;;8.17;4.37;;;;;;;-1.43;100.00;62757.53;5054152;28;20197;-54
2024/01/21 08:02:13;;;;;;;7.50;4.43;;;;;;;0.36;100.00;62948.19;5071071;28;20691;-52
2024/01/21 08:04:39;;;;;;;5.00;3.37;;;;;;;0.07;100.00;62916.22;5053188;28;20204;-53
2024/01/21 08:07:04;;;;;;;9.00;4.87;;;;;;;-0.22;100.00;62887.84;5071894;28;20296;-59
2024/01/21 08:09:30;;;;;;;7.47;3.77;;;;;;;-0.11;100.00;62897.84;5053786;28;20682;-54
2024/01/21 08:11:55;;;;;;;6.20;3.70;;;;;;;0.00;99.22;62911.69;5053878;28;20625;-57
2024/01/21 08:14:21;;;;;;;5.40;3.17;;;;;;;0.27;94.60;62940.34;5071814;28;20181;-51
2024/01/21 08:16:46;;;;;;;7.27;3.00;;;;;;;0.79;95.10;62997.22;5071589;28;20307;-53
2024/01/21 08:19:12;;;;;;;7.03;3.53;;;;;;;0.88;93.33;63003.94;5071754;28;20223;-54
2024/01/21 08:21:38;;;;;;;7.97;3.50;;;;;;;0.91;90.26;63009.66;5071739;28;20201;-53
2024/01/21 08:24:03;;;;;;;5.57;3.53;;;;;;;1.22;90.13;63043.28;5062728;28;20578;-55
2024/01/21 08:26:30;;;;;;;5.83;3.40;;;;;;;1.54;86.52;63077.97;5070260;28;20189;-55
2024/01/21 08:28:55;;;;;;;6.63;3.33;;;;;;;1.88;84.91;63109.31;5071031;28;20581;-56
2024/01/21 08:31:21;;;;;;;4.70;3.27;;;;;;;2.24;83.62;63152.81;5071502;28;20185;-57
2024/01/21 08:33:46;;;;;;;4.27;3.57;;;;;;;2.53;81.05;63184.25;5071237;28;20212;-62
2024/01/21 08:36:12;;;;;;;5.60;3.50;;;;;;;2.77;77.05;63209.78;5071407;28;20279;-53
2024/01/21 08:38:38;;;;;;;5.77;3.80;;;;;;;2.66;83.06;63192.88;5053284;28;20269;-53
2024/01/21 08:41:04;;;;;;;4.37;2.90;;;;;;;3.59;75.33;63293.31;5071408;28;20610;-53
2024/01/21 08:43:30;;;;;;;6.83;4.17;;;;;;;3.91;73.44;63331.13;5071574;28;20702;-54
2024/01/21 08:45:55;;;;;;;5.80;4.03;;;;;;;4.33;69.92;63373.75;5053384;28;20189;-55
2024/01/21 08:48:21;;;;;;;3.57;2.77;;;;;;;3.93;72.95;63330.81;5071640;28;20703;-53
2024/01/21 08:50:46;;;;;;;5.23;2.80;;;;;;;3.30;72.92;63264.84;5052987;28;20197;-52
2024/01/21 08:53:13;;;;;;;5.63;3.83;;;;;;;3.51;74.01;63290.16;5071052;28;20210;-58
2024/01/21 08:55:38;;;;;;;5.47;3.57;;;;;;;4.01;70.31;63344.50;5069843;28;20195;-56
2024/01/21 08:58:04;;;;;;;3.43;2.63;;;;;;;3.74;69.21;63315.16;5070242;28;20216;-57
2024/01/21 09:00:30;;;;;;;4.27;2.50;;;;;;;3.67;73.54;63302.00;5071138;28;20191;-53
2024/01/21 09:02:55;;;;;;;5.27;3.37;;;;;;;3.71;71.92;63306.38;5071075;28;20205;-55
2024/01/21 09:05:21;;;;;;;4.47;3.07;;;;;;;3.73;73.55;63311.56;5070996;28;20227;-56
2024/01/21 09:07:46;;;;;;;4.43;2.73;;;;;;;3.77;66.21;63315.91;5071339;28;20286;-53
2024/01/21 09:10:12;;;;;;;4.20;2.77;;;;;;;3.56;67.21;63293.09;5071367;28;20257;-56
2024/01/21 09:12:38;;;;;;;4.60;3.47;;;;;;;4.24;69.57;63368.97;5070684;28;20218;-54
2024/01/21 09:15:05;;;;;;;6.40;3.07;;;;;;;4.49;66.79;63393.66;5071221;28;20198;-54
2024/01/21 09:17:31;;;;;;;4.63;3.10;;;;;;;3.94;71.53;63336.34;5070846;28;20211;-55
2024/01/21 09:19:58;;;;;;;4.90;2.97;;;;;;;4.50;70.63;63392.25;5052942;28;20257;-55
2024/01/21 09:22:24;;;;;;;5.40;3.27;;;;;;;5.55;66.20;63508.47;5070717;28;20294;-54
2024/01/21 09:24:49;;;;;;;4.30;3.17;;;;;;;5.92;63.62;63545.72;5052848;28;20291;-55
2024/01/21 09:27:15;;;;;;;5.13;3.47;;;;;;;5.93;61.93;63552.38;5070798;28;20556;-55
2024/01/21 09:29:42;;;;;;;5.33;3.80;;;;;;;6.41;62.71;63601.06;5052867;28;20204;-55
2024/01/21 09:32:11;;;;;;;5.47;3.63;;;;;;;6.85;60.61;63651.53;5053001;28;20717;-55
2024/01/21 09:34:39;;;;;;;4.60;3.50;;;;;;;5.50;62.00;63499.97;5070702;28;20195;-55
2024/01/21 09:37:07;;;;;;;3.47;2.50;;;;;;;5.61;61.27;63514.47;5070543;28;20223;-54
2024/01/21 09:39:33;;;;;;;5.10;3.20;;;;;;;6.35;59.34;63594.53;5070680;28;20261;-54
2024/01/21 09:41:59;;;;;;;5.10;3.37;;;;;;;6.82;55.33;63642.72;5070687;28;20212;-57
2024/01/21 09:44:27;;;;;;;5.13;3.87;;;;;;;7.20;58.30;63687.22;5070849;28;20234;-53
2024/01/21 09:46:57;;;;;;;8.53;6.07;;;;;;;7.33;56.49;63703.38;5070374;28;20220;-54
2024/01/21 09:49:24;;;;;;;7.37;3.73;;;;;;;6.73;58.26;63634.00;5070720;28;20673;-55
2024/01/21 09:51:50;;;;;;;7.03;3.23;;;;;;;6.77;55.96;63643.38;5070432;28;20224;-54
2024/01/21 09:54:17;;;;;;;4.30;3.47;;;;;;;6.34;56.91;63595.97;5069877;28;20188;-56
2024/01/21 09:56:43;;;;;;;4.70;2.80;;;;;;;7.36;56.47;63701.63;5068469;28;20213;-53
2024/01/21 09:59:10;;;;;;;4.20;2.90;;;;;;;7.79;53.40;63751.06;5070376;28;20240;-57
2024/01/21 10:01:40;;;;;;;4.27;2.77;;;;;;;7.19;51.92;63683.09;5070302;28;20193;-54
2024/01/21 10:04:10;;;;;;;4.07;2.57;;;;;;;7.78;51.44;63747.44;5054769;28;20193;-55
2024/01/21 10:06:36;;;;;;;4.47;3.00;;;;;;;8.11;52.07;63785.97;5073790;28;20188;-56
2024/01/21 10:09:12;;;;;;;5.33;3.30;;;;;;;8.12;50.01;63784.03;5073786;28;20197;-55
2024/01/21 10:11:38;;;;;;;4.47;2.80;;;;;;;8.62;51.59;63841.16;5073956;28;20192;-54
2024/01/21 10:14:03;;;;;;;4.23;2.77;;;;;;;8.80;51.13;63860.81;5074022;28;20250;-55
2024/01/21 10:16:29;;;;;;;3.83;2.90;;;;;;;8.75;51.97;63852.28;5073658;28;20205;-58
2024/01/21 10:18:54;;;;;;;5.60;3.13;;;;;;;8.84;50.93;63862.69;5073951;28;20185;-54
2024/01/21 10:21:20;;;;;;;4.50;3.20;;;;;;;7.48;51.32;63719.72;5073653;28;20189;-54
2024/01/21 10:23:47;;;;;;;5.03;3.50;;;;;;;7.88;53.08;63760.88;5073540;28;20208;-55
2024/01/21 10:26:12;;;;;;;4.13;2.70;;;;;;;7.68;51.77;63739.03;5073459;28;20228;-55
2024/01/21 10:28:39;;;;;;;4.93;2.63;;;;;;;8.41;47.72;63816.25;5073417;28;20664;-55
2024/01/21 10:31:08;;;;;;;7.60;3.60;;;;;;;8.69;49.71;63845.72;5073500;28;20193;-55
2024/01/21 10:33:34;;;;;;;5.47;2.87;;;;;;;8.82;49.41;63863.00;5074003;28;20217;-55
2024/01/21 10:36:03;;;;;;;7.20;3.00;;;;;;;9.15;49.70;63901.03;5071358;28;20201;-56
2024/01/21 10:38:32;;;;;;;11.87;7.43;;;;;;;9.23;49.00;63904.75;5072452;28;20212;-55
2024/01/21 10:41:00;;;;;;;23.27;13.80;;;;;;;9.06;50.51;63886.72;5071652;28;20189;-53
2024/01/21 10:43:29;;;;;;;19.77;13.07;;;;;;;9.37;50.63;63924.53;5073544;28;20216;-53
2024/01/21 10:45:56;;;;;;;19.30;12.07;;;;;;;9.30;50.77;63912.41;5073449;28;20203;-56
2024/01/21 10:48:23;;;;;;;21.80;13.27;;;;;;;8.95;50.61;63879.72;5055715;28;20212;-53
2024/01/21 10:50:51;;;;;;;19.80;12.67;;;;;;;8.65;51.47;63843.88;5073163;28;20706;-53
2024/01/21 10:53:17;;;;;;;24.13;14.17;;;;;;;8.75;51.63;63857.84;5072952;28;20211;-54
2024/01/21 10:55:44;;;;;;;22.53;15.07;;;;;;;9.11;49.87;63896.66;5055008;28;20191;-54
2024/01/21 10:58:10;;;;;;;22.07;13.60;;;;;;;9.31;48.97;63913.50;5072845;28;20243;-55
2024/01/21 11:00:39;;;;;;;18.50;13.43;;;;;;;9.44;49.94;63927.16;5071880;28;20562;-55
2024/01/21 11:03:30;;;;;;;25.37;14.30;;;;;;;9.33;49.40;63918.72;5073801;28;20686;-54
2024/01/21 11:06:00;;;;;;;27.27;15.30;;;;;;;9.69;49.60;63954.50;5073205;28;20193;-54
2024/01/21 11:08:27;;;;;;;25.40;13.03;;;;;;;9.79;48.41;63962.91;5072927;28;20212;-56
2024/01/21 11:11:14;;;;;;;20.90;12.57;;;;;;;9.65;48.00;63955.69;5071635;28;20197;-53
2024/01/21 11:13:47;;;;;;;20.13;13.77;;;;;;;9.64;48.67;63951.53;5072804;28;20205;-55
2024/01/21 11:16:33;;;;;;;22.83;13.97;;;;;;;9.67;47.27;63952.84;5071455;28;20193;-55
2024/01/21 11:19:09;;;;;;;21.53;14.10;;;;;;;9.14;48.48;63899.94;5071937;28;20296;-54
2024/01/21 11:21:42;;;;;;;21.37;12.70;;;;;;;9.10;48.29;63890.53;5053427;28;20201;-55
2024/01/21 11:24:16;;;;;;;20.87;13.73;;;;;;;8.81;49.47;63861.91;5060573;28;20205;-54
2024/01/21 11:26:43;;;;;;;20.90;12.77;;;;;;;8.84;49.82;63864.63;5072465;28;20185;-54
2024/01/21 11:29:33;;;;;;;22.97;14.90;;;;;;;8.77;50.30;63857.53;5072614;28;20188;-55